sensor_id;sensor_type;location;lat;lon;timestamp;pressure;altitude;pressure_sealevel;temperature;humidity
23363;BME280;11853;48.080;11.960;2023-04-07T00:01:42;94823.28;;;5.62;64.26
23363;BME280;11853;48.080;11.960;2023-04-07T00:04:07;94821.84;;;5.58;63.78
23363;BME280;11853;48.080;11.960;2023-04-07T00:06:33;94827.22;;;5.57;63.57
23363;BME280;11853;48.080;11.960;2023-04-07T00:08:58;94824.63;;;5.46;63.48
23363;BME280;11853;48.080;11.960;2023-04-07T00:11:24;94823.31;;;5.40;63.58
23363;BME280;11853;48.080;11.960;2023-04-07T00:13:50;94819.50;;;5.33;64.11
23363;BME280;11853;48.080;11.960;2023-04-07T00:16:15;94823.44;;;5.38;64.35
23363;BME280;11853;48.080;11.960;2023-04-07T00:18:41;94823.31;;;5.40;64.22
23363;BME280;11853;48.080;11.960;2023-04-07T00:21:07;94825.47;;;5.35;63.83
23363;BME280;11853;48.080;11.960;2023-04-07T00:23:32;94826.91;;;5.28;64.79
23363;BME280;11853;48.080;11.960;2023-04-07T00:25:58;94819.53;;;5.22;64.97
23363;BME280;11853;48.080;11.960;2023-04-07T00:28:23;94815.44;;;5.17;64.79
23363;BME280;11853;48.080;11.960;2023-04-07T00:30:49;94817.13;;;5.18;65.09
23363;BME280;11853;48.080;11.960;2023-04-07T00:33:14;94810.19;;;5.17;65.20
23363;BME280;11853;48.080;11.960;2023-04-07T00:35:40;94806.50;;;5.09;65.82
23363;BME280;11853;48.080;11.960;2023-04-07T00:38:06;94813.78;;;5.05;65.44
23363;BME280;11853;48.080;11.960;2023-04-07T00:40:31;94812.38;;;5.01;66.18
23363;BME280;11853;48.080;11.960;2023-04-07T00:42:57;94813.31;;;5.00;65.85
23363;BME280;11853;48.080;11.960;2023-04-07T00:45:22;94806.38;;;4.99;66.56
23363;BME280;11853;48.080;11.960;2023-04-07T00:47:48;94810.56;;;5.02;65.81
23363;BME280;11853;48.080;11.960;2023-04-07T00:50:13;94803.41;;;4.92;65.97
23363;BME280;11853;48.080;11.960;2023-04-07T00:52:39;94804.59;;;4.88;66.20
23363;BME280;11853;48.080;11.960;2023-04-07T00:55:05;94799.47;;;4.87;66.82
23363;BME280;11853;48.080;11.960;2023-04-07T00:57:31;94795.28;;;4.84;66.50
23363;BME280;11853;48.080;11.960;2023-04-07T00:59:57;94799.47;;;4.87;66.11
23363;BME280;11853;48.080;11.960;2023-04-07T01:02:32;94798.75;;;4.85;66.64
23363;BME280;11853;48.080;11.960;2023-04-07T01:05:20;94792.50;;;4.86;66.57
23363;BME280;11853;48.080;11.960;2023-04-07T01:07:57;94791.59;;;4.87;66.93
23363;BME280;11853;48.080;11.960;2023-04-07T01:10:59;94795.75;;;4.89;66.52
23363;BME280;11853;48.080;11.960;2023-04-07T01:13:45;94786.31;;;4.87;66.35
23363;BME280;11853;48.080;11.960;2023-04-07T01:16:18;94790.13;;;4.83;66.50
23363;BME280;11853;48.080;11.960;2023-04-07T01:18:50;94783.94;;;4.84;66.23
23363;BME280;11853;48.080;11.960;2023-04-07T01:21:17;94784.28;;;4.79;66.79
23363;BME280;11853;48.080;11.960;2023-04-07T01:26:31;94776.06;;;4.84;66.28
23363;BME280;11853;48.080;11.960;2023-04-07T01:29:06;94779.13;;;4.89;67.00
23363;BME280;11853;48.080;11.960;2023-04-07T01:31:38;94783.81;;;4.85;67.03
23363;BME280;11853;48.080;11.960;2023-04-07T01:34:05;94783.44;;;4.79;67.34
23363;BME280;11853;48.080;11.960;2023-04-07T01:36:33;94781.31;;;4.84;66.45
23363;BME280;11853;48.080;11.960;2023-04-07T01:39:00;94784.63;;;4.86;66.29
23363;BME280;11853;48.080;11.960;2023-04-07T01:41:26;94782.97;;;4.85;67.29
23363;BME280;11853;48.080;11.960;2023-04-07T01:43:53;94785.34;;;4.77;66.91
23363;BME280;11853;48.080;11.960;2023-04-07T01:46:20;94778.53;;;4.74;67.55
23363;BME280;11853;48.080;11.960;2023-04-07T01:48:47;94780.69;;;4.80;67.57
23363;BME280;11853;48.080;11.960;2023-04-07T01:51:13;94773.66;;;4.69;67.48
23363;BME280;11853;48.080;11.960;2023-04-07T01:53:46;94782.97;;;4.73;67.73
23363;BME280;11853;48.080;11.960;2023-04-07T01:56:13;94777.72;;;4.73;66.91
23363;BME280;11853;48.080;11.960;2023-04-07T01:58:39;94768.16;;;4.72;67.19
23363;BME280;11853;48.080;11.960;2023-04-07T02:01:05;94772.94;;;4.67;67.27
23363;BME280;11853;48.080;11.960;2023-04-07T02:03:51;94769.72;;;4.64;67.44
23363;BME280;11853;48.080;11.960;2023-04-07T02:06:22;94780.81;;;4.67;67.23
23363;BME280;11853;48.080;11.960;2023-04-07T02:08:56;94775.09;;;4.73;66.77
23363;BME280;11853;48.080;11.960;2023-04-07T02:11:23;94773.44;;;4.72;66.28
23363;BME280;11853;48.080;11.960;2023-04-07T02:13:52;94777.59;;;4.75;65.62
23363;BME280;11853;48.080;11.960;2023-04-07T02:16:19;94765.06;;;4.67;66.33
23363;BME280;11853;48.080;11.960;2023-04-07T02:18:46;94777.22;;;4.68;66.98
23363;BME280;11853;48.080;11.960;2023-04-07T02:21:14;94763.00;;;4.60;66.59
23363;BME280;11853;48.080;11.960;2023-04-07T02:23:40;94772.94;;;4.56;66.67
23363;BME280;11853;48.080;11.960;2023-04-07T02:26:06;94766.00;;;4.55;66.11
23363;BME280;11853;48.080;11.960;2023-04-07T02:28:31;94760.63;;;4.45;67.15
23363;BME280;11853;48.080;11.960;2023-04-07T02:30:57;94761.44;;;4.46;67.62
23363;BME280;11853;48.080;11.960;2023-04-07T02:33:22;94762.91;;;4.50;69.00
23363;BME280;11853;48.080;11.960;2023-04-07T02:35:48;94755.72;;;4.52;69.53
23363;BME280;11853;48.080;11.960;2023-04-07T02:38:13;94757.88;;;4.47;69.01
23363;BME280;11853;48.080;11.960;2023-04-07T02:40:39;94762.91;;;4.50;68.87
23363;BME280;11853;48.080;11.960;2023-04-07T02:43:05;94758.81;;;4.46;68.69
23363;BME280;11853;48.080;11.960;2023-04-07T02:45:30;94757.88;;;4.47;68.88
23363;BME280;11853;48.080;11.960;2023-04-07T02:47:56;94749.88;;;4.48;68.24
23363;BME280;11853;48.080;11.960;2023-04-07T02:50:21;94755.03;;;4.50;68.39
23363;BME280;11853;48.080;11.960;2023-04-07T02:52:47;94754.19;;;4.49;67.75
23363;BME280;11853;48.080;11.960;2023-04-07T02:55:13;94752.25;;;4.51;68.57
23363;BME280;11853;48.080;11.960;2023-04-07T02:57:38;94753.47;;;4.47;67.86
23363;BME280;11853;48.080;11.960;2023-04-07T03:00:05;94758.81;;;4.46;68.18
23363;BME280;11853;48.080;11.960;2023-04-07T03:02:30;94750.00;;;4.47;68.23
23363;BME280;11853;48.080;11.960;2023-04-07T03:04:56;94751.19;;;4.43;68.01
23363;BME280;11853;48.080;11.960;2023-04-07T03:07:21;94748.56;;;4.43;67.99
23363;BME280;11853;48.080;11.960;2023-04-07T03:09:47;94745.00;;;4.44;69.21
23363;BME280;11853;48.080;11.960;2023-04-07T03:12:12;94744.84;;;4.45;68.50
23363;BME280;11853;48.080;11.960;2023-04-07T03:14:38;94737.94;;;4.44;68.68
23363;BME280;11853;48.080;11.960;2023-04-07T03:17:03;94729.09;;;4.45;68.66
23363;BME280;11853;48.080;11.960;2023-04-07T03:19:29;94730.41;;;4.40;68.68
23363;BME280;11853;48.080;11.960;2023-04-07T03:21:54;94731.25;;;4.40;68.91
23363;BME280;11853;48.080;11.960;2023-04-07T03:24:20;94733.41;;;4.46;68.65
23363;BME280;11853;48.080;11.960;2023-04-07T03:26:46;94735.41;;;4.43;68.76
23363;BME280;11853;48.080;11.960;2023-04-07T03:29:11;94735.19;;;4.46;68.27
23363;BME280;11853;48.080;11.960;2023-04-07T03:31:37;94737.13;;;4.44;68.85
23363;BME280;11853;48.080;11.960;2023-04-07T03:34:03;94728.28;;;4.45;69.18
23363;BME280;11853;48.080;11.960;2023-04-07T03:36:29;94734.72;;;4.41;69.50
23363;BME280;11853;48.080;11.960;2023-04-07T03:38:56;94731.13;;;4.42;70.06
23363;BME280;11853;48.080;11.960;2023-04-07T03:41:22;94737.13;;;4.44;70.25
23363;BME280;11853;48.080;11.960;2023-04-07T03:43:47;94723.03;;;4.45;69.86
23363;BME280;11853;48.080;11.960;2023-04-07T03:46:13;94723.97;;;4.44;71.12
23363;BME280;11853;48.080;11.960;2023-04-07T03:48:38;94722.53;;;4.51;70.06
23363;BME280;11853;48.080;11.960;2023-04-07T03:54:26;94711.31;;;4.60;68.60
23363;BME280;11853;48.080;11.960;2023-04-07T03:56:52;94724.56;;;4.59;68.26
23363;BME280;11853;48.080;11.960;2023-04-07T03:59:17;94720.16;;;4.59;69.38
23363;BME280;11853;48.080;11.960;2023-04-07T04:01:43;94725.88;;;4.64;70.17
23363;BME280;11853;48.080;11.960;2023-04-07T04:04:09;94714.91;;;4.59;68.92
23363;BME280;11853;48.080;11.960;2023-04-07T04:06:35;94714.66;;;4.62;69.34
23363;BME280;11853;48.080;11.960;2023-04-07T04:09:00;94718.84;;;4.65;69.57
23363;BME280;11853;48.080;11.960;2023-04-07T04:11:26;94710.81;;;4.66;71.09
23363;BME280;11853;48.080;11.960;2023-04-07T04:13:52;94708.66;;;4.71;71.36
23363;BME280;11853;48.080;11.960;2023-04-07T04:16:17;94719.19;;;4.71;74.62
23363;BME280;11853;48.080;11.960;2023-04-07T04:18:43;94709.63;;;4.82;74.87
23363;BME280;11853;48.080;11.960;2023-04-07T04:21:08;94709.97;;;4.88;75.57
23363;BME280;11853;48.080;11.960;2023-04-07T04:23:34;94709.97;;;4.88;75.41
23363;BME280;11853;48.080;11.960;2023-04-07T04:26:00;94713.31;;;4.90;75.64
23363;BME280;11853;48.080;11.960;2023-04-07T04:28:28;94715.47;;;4.96;76.41
23363;BME280;11853;48.080;11.960;2023-04-07T04:30:54;94719.06;;;4.95;76.60
23363;BME280;11853;48.080;11.960;2023-04-07T04:33:20;94712.59;;;5.00;76.52
23363;BME280;11853;48.080;11.960;2023-04-07T04:35:45;94712.47;;;5.01;77.23
23363;BME280;11853;48.080;11.960;2023-04-07T04:38:11;94717.00;;;4.99;77.23
23363;BME280;11853;48.080;11.960;2023-04-07T04:40:37;94710.44;;;5.05;77.09
23363;BME280;11853;48.080;11.960;2023-04-07T04:43:02;94713.88;;;5.05;78.47
23363;BME280;11853;48.080;11.960;2023-04-07T04:45:32;94709.34;;;5.07;79.14
23363;BME280;11853;48.080;11.960;2023-04-07T04:47:57;94697.50;;;5.13;79.66
23363;BME280;11853;48.080;11.960;2023-04-07T04:50:23;94703.56;;;5.25;80.46
23363;BME280;11853;48.080;11.960;2023-04-07T04:52:49;94713.94;;;5.26;82.84
23363;BME280;11853;48.080;11.960;2023-04-07T04:55:14;94709.75;;;5.35;82.98
23363;BME280;11853;48.080;11.960;2023-04-07T04:57:40;94699.78;;;5.50;82.62
23363;BME280;11853;48.080;11.960;2023-04-07T05:00:06;94704.03;;;5.62;82.90
23363;BME280;11853;48.080;11.960;2023-04-07T05:02:32;94705.53;;;5.76;82.08
23363;BME280;11853;48.080;11.960;2023-04-07T05:04:58;94706.66;;;5.83;82.96
23363;BME280;11853;48.080;11.960;2023-04-07T05:07:24;94707.09;;;5.99;83.03
23363;BME280;11853;48.080;11.960;2023-04-07T05:09:50;94697.19;;;6.34;82.18
23363;BME280;11853;48.080;11.960;2023-04-07T05:12:16;94694.16;;;6.69;79.82
23363;BME280;11853;48.080;11.960;2023-04-07T05:14:41;94702.03;;;6.99;78.93
23363;BME280;11853;48.080;11.960;2023-04-07T05:17:07;94693.91;;;7.32;77.59
23363;BME280;11853;48.080;11.960;2023-04-07T05:19:32;94696.28;;;7.44;76.75
23363;BME280;11853;48.080;11.960;2023-04-07T05:21:58;94696.00;;;7.57;75.80
23363;BME280;11853;48.080;11.960;2023-04-07T05:24:28;94697.41;;;7.42;75.81
23363;BME280;11853;48.080;11.960;2023-04-07T05:26:54;94696.25;;;7.15;76.54
23363;BME280;11853;48.080;11.960;2023-04-07T05:29:22;94699.28;;;7.01;77.48
23363;BME280;11853;48.080;11.960;2023-04-07T05:31:47;94695.88;;;6.89;78.14
23363;BME280;11853;48.080;11.960;2023-04-07T05:34:13;94703.88;;;6.78;78.77
23363;BME280;11853;48.080;11.960;2023-04-07T05:36:39;94695.56;;;6.73;79.55
23363;BME280;11853;48.080;11.960;2023-04-07T05:39:04;94697.75;;;6.68;79.94
23363;BME280;11853;48.080;11.960;2023-04-07T05:41:30;94701.88;;;6.61;81.41
23363;BME280;11853;48.080;11.960;2023-04-07T05:43:56;94698.56;;;6.59;81.20
23363;BME280;11853;48.080;11.960;2023-04-07T05:46:21;94696.19;;;6.56;80.69
23363;BME280;11853;48.080;11.960;2023-04-07T05:48:47;94703.50;;;6.52;81.50
23363;BME280;11853;48.080;11.960;2023-04-07T05:51:13;94706.41;;;6.49;82.46
23363;BME280;11853;48.080;11.960;2023-04-07T05:53:39;94700.56;;;6.45;82.56
23363;BME280;11853;48.080;11.960;2023-04-07T05:56:05;94701.66;;;6.43;83.27
23363;BME280;11853;48.080;11.960;2023-04-07T05:58:31;94703.09;;;6.47;83.22
23363;BME280;11853;48.080;11.960;2023-04-07T06:00:57;94701.84;;;6.51;84.12
23363;BME280;11853;48.080;11.960;2023-04-07T06:03:22;94704.09;;;6.56;83.69
23363;BME280;11853;48.080;11.960;2023-04-07T06:05:48;94693.81;;;6.52;84.70
23363;BME280;11853;48.080;11.960;2023-04-07T06:08:14;94698.84;;;6.56;85.58
23363;BME280;11853;48.080;11.960;2023-04-07T06:10:40;94687.56;;;6.53;86.87
23363;BME280;11853;48.080;11.960;2023-04-07T06:13:06;94693.28;;;6.59;86.92
23363;BME280;11853;48.080;11.960;2023-04-07T06:15:32;94697.31;;;6.63;87.15
23363;BME280;11853;48.080;11.960;2023-04-07T06:17:58;94693.88;;;6.72;85.87
23363;BME280;11853;48.080;11.960;2023-04-07T06:20:24;94699.13;;;6.62;86.55
23363;BME280;11853;48.080;11.960;2023-04-07T06:22:52;94699.66;;;6.56;87.36
23363;BME280;11853;48.080;11.960;2023-04-07T06:25:19;94692.13;;;6.51;87.01
23363;BME280;11853;48.080;11.960;2023-04-07T06:27:48;94691.13;;;6.43;88.43
23363;BME280;11853;48.080;11.960;2023-04-07T06:30:14;94692.94;;;6.42;87.97
23363;BME280;11853;48.080;11.960;2023-04-07T06:32:40;94694.47;;;6.45;87.32
23363;BME280;11853;48.080;11.960;2023-04-07T06:35:06;94693.66;;;6.44;87.91
23363;BME280;11853;48.080;11.960;2023-04-07T06:37:32;94692.78;;;6.44;87.12
23363;BME280;11853;48.080;11.960;2023-04-07T06:39:58;94693.13;;;6.50;86.81
23363;BME280;11853;48.080;11.960;2023-04-07T06:42:23;94694.31;;;6.46;87.67
23363;BME280;11853;48.080;11.960;2023-04-07T06:44:49;94692.66;;;6.45;88.35
23363;BME280;11853;48.080;11.960;2023-04-07T06:47:15;94686.28;;;6.38;88.47
23363;BME280;11853;48.080;11.960;2023-04-07T06:49:40;94689.84;;;6.37;89.27
23363;BME280;11853;48.080;11.960;2023-04-07T06:52:06;94694.19;;;6.38;89.85
23363;BME280;11853;48.080;11.960;2023-04-07T06:54:32;94691.84;;;6.45;89.50
23363;BME280;11853;48.080;11.960;2023-04-07T06:56:57;94688.66;;;6.41;90.00
23363;BME280;11853;48.080;11.960;2023-04-07T06:59:23;94689.59;;;6.71;86.61
23363;BME280;11853;48.080;11.960;2023-04-07T07:01:49;94676.13;;;6.64;87.78
23363;BME280;11853;48.080;11.960;2023-04-07T07:04:14;94686.31;;;6.48;88.93
23363;BME280;11853;48.080;11.960;2023-04-07T07:06:40;94688.47;;;6.33;89.99
23363;BME280;11853;48.080;11.960;2023-04-07T07:09:06;94685.22;;;6.50;87.95
23363;BME280;11853;48.080;11.960;2023-04-07T07:11:32;94681.16;;;6.46;87.87
23363;BME280;11853;48.080;11.960;2023-04-07T07:13:57;94678.25;;;6.49;88.39
23363;BME280;11853;48.080;11.960;2023-04-07T07:16:23;94684.41;;;6.60;86.80
23363;BME280;11853;48.080;11.960;2023-04-07T07:18:49;94679.84;;;6.62;88.06
23363;BME280;11853;48.080;11.960;2023-04-07T07:21:16;94676.13;;;6.64;86.02
23363;BME280;11853;48.080;11.960;2023-04-07T07:23:43;94685.50;;;6.57;87.39
23363;BME280;11853;48.080;11.960;2023-04-07T07:26:09;94682.66;;;6.70;86.44
23363;BME280;11853;48.080;11.960;2023-04-07T07:28:34;94681.56;;;6.72;86.19
23363;BME280;11853;48.080;11.960;2023-04-07T07:31:06;94677.84;;;6.94;86.49
23363;BME280;11853;48.080;11.960;2023-04-07T07:33:34;94675.69;;;7.29;85.86
23363;BME280;11853;48.080;11.960;2023-04-07T07:36:00;94677.38;;;7.49;84.08
23363;BME280;11853;48.080;11.960;2023-04-07T07:38:25;94684.75;;;7.65;82.61
23363;BME280;11853;48.080;11.960;2023-04-07T07:40:51;94677.78;;;7.64;80.92
23363;BME280;11853;48.080;11.960;2023-04-07T07:43:17;94681.13;;;7.66;81.25
23363;BME280;11853;48.080;11.960;2023-04-07T07:45:43;94681.28;;;7.74;80.23
23363;BME280;11853;48.080;11.960;2023-04-07T07:48:09;94683.06;;;7.83;81.02
23363;BME280;11853;48.080;11.960;2023-04-07T07:50:34;94679.34;;;7.57;81.63
23363;BME280;11853;48.080;11.960;2023-04-07T07:53:00;94676.16;;;7.53;82.77
23363;BME280;11853;48.080;11.960;2023-04-07T07:55:35;94676.00;;;7.55;82.83
23363;BME280;11853;48.080;11.960;2023-04-07T07:58:01;94677.13;;;7.62;82.60
23363;BME280;11853;48.080;11.960;2023-04-07T08:00:27;94678.09;;;7.71;82.64
23363;BME280;11853;48.080;11.960;2023-04-07T08:02:53;94686.69;;;7.82;80.95
23363;BME280;11853;48.080;11.960;2023-04-07T08:05:20;94675.44;;;7.80;80.48
23363;BME280;11853;48.080;11.960;2023-04-07T08:07:45;94681.56;;;7.71;81.50
23363;BME280;11853;48.080;11.960;2023-04-07T08:10:12;94689.63;;;7.79;82.13
23363;BME280;11853;48.080;11.960;2023-04-07T08:12:37;94680.28;;;7.95;81.14
23363;BME280;11853;48.080;11.960;2023-04-07T08:15:04;94682.66;;;7.98;80.44
23363;BME280;11853;48.080;11.960;2023-04-07T08:17:32;94681.84;;;7.87;79.75
23363;BME280;11853;48.080;11.960;2023-04-07T08:19:57;94681.97;;;7.96;80.72
23363;BME280;11853;48.080;11.960;2023-04-07T08:22:23;94681.69;;;7.99;80.69
23363;BME280;11853;48.080;11.960;2023-04-07T08:24:49;94683.22;;;8.01;79.32
23363;BME280;11853;48.080;11.960;2023-04-07T08:27:14;94690.28;;;8.01;80.78
23363;BME280;11853;48.080;11.960;2023-04-07T08:29:40;94687.94;;;8.07;79.64
23363;BME280;11853;48.080;11.960;2023-04-07T08:32:06;94688.72;;;8.27;78.61
23363;BME280;11853;48.080;11.960;2023-04-07T08:34:31;94686.09;;;8.27;79.83
23363;BME280;11853;48.080;11.960;2023-04-07T08:36:57;94680.06;;;8.35;78.10
23363;BME280;11853;48.080;11.960;2023-04-07T08:39:23;94682.03;;;8.23;79.17
23363;BME280;11853;48.080;11.960;2023-04-07T08:41:50;94682.31;;;8.30;78.76
23363;BME280;11853;48.080;11.960;2023-04-07T08:44:16;94678.81;;;8.29;79.20
23363;BME280;11853;48.080;11.960;2023-04-07T08:46:44;94678.53;;;8.32;79.97
23363;BME280;11853;48.080;11.960;2023-04-07T08:49:11;94679.25;;;8.34;78.35
23363;BME280;11853;48.080;11.960;2023-04-07T08:51:45;94677.00;;;8.49;79.06
23363;BME280;11853;48.080;11.960;2023-04-07T08:54:13;94670.88;;;8.49;77.94
23363;BME280;11853;48.080;11.960;2023-04-07T08:56:41;94677.44;;;8.45;78.31
23363;BME280;11853;48.080;11.960;2023-04-07T08:59:10;94673.66;;;8.38;79.11
23363;BME280;11853;48.080;11.960;2023-04-07T09:01:36;94675.47;;;8.37;77.48
23363;BME280;11853;48.080;11.960;2023-04-07T09:04:03;94679.38;;;8.43;76.66
23363;BME280;11853;48.080;11.960;2023-04-07T09:06:30;94680.38;;;8.42;76.74
23363;BME280;11853;48.080;11.960;2023-04-07T09:08:59;94686.22;;;8.35;76.71
23363;BME280;11853;48.080;11.960;2023-04-07T09:11:29;94676.75;;;8.33;77.71
23363;BME280;11853;48.080;11.960;2023-04-07T09:13:55;94676.06;;;8.31;78.52
23363;BME280;11853;48.080;11.960;2023-04-07T09:16:21;94677.16;;;8.28;78.04
23363;BME280;11853;48.080;11.960;2023-04-07T09:18:48;94681.34;;;8.41;76.13
23363;BME280;11853;48.080;11.960;2023-04-07T09:21:14;94672.44;;;8.42;78.32
23363;BME280;11853;48.080;11.960;2023-04-07T09:23:41;94676.59;;;8.34;76.90
23363;BME280;11853;48.080;11.960;2023-04-07T09:26:24;94672.00;;;8.46;77.73
23363;BME280;11853;48.080;11.960;2023-04-07T09:28:56;94675.00;;;8.61;76.93
23363;BME280;11853;48.080;11.960;2023-04-07T09:31:23;94663.69;;;8.78;76.74
23363;BME280;11853;48.080;11.960;2023-04-07T09:33:51;94662.19;;;8.94;74.87
23363;BME280;11853;48.080;11.960;2023-04-07T09:36:17;94658.66;;;9.03;72.89
23363;BME280;11853;48.080;11.960;2023-04-07T09:38:46;94649.72;;;9.32;73.39
23363;BME280;11853;48.080;11.960;2023-04-07T09:41:15;94652.22;;;9.69;70.03
23363;BME280;11853;48.080;11.960;2023-04-07T09:43:43;94648.28;;;10.17;68.94
23363;BME280;11853;48.080;11.960;2023-04-07T09:46:16;94640.16;;;10.36;66.46
23363;BME280;11853;48.080;11.960;2023-04-07T09:48:43;94646.78;;;10.67;66.78
23363;BME280;11853;48.080;11.960;2023-04-07T09:51:16;94640.84;;;10.73;64.77
23363;BME280;11853;48.080;11.960;2023-04-07T09:53:49;94645.50;;;10.71;63.91
23363;BME280;11853;48.080;11.960;2023-04-07T09:56:20;94638.50;;;10.70;63.28
23363;BME280;11853;48.080;11.960;2023-04-07T09:58:50;94631.69;;;10.67;64.23
23363;BME280;11853;48.080;11.960;2023-04-07T10:01:20;94638.50;;;10.70;64.87
23363;BME280;11853;48.080;11.960;2023-04-07T10:03:47;94637.75;;;10.86;65.66
23363;BME280;11853;48.080;11.960;2023-04-07T10:06:15;94629.00;;;11.01;65.63
23363;BME280;11853;48.080;11.960;2023-04-07T10:08:41;94631.53;;;11.11;64.09
23363;BME280;11853;48.080;11.960;2023-04-07T10:11:09;94618.94;;;11.13;63.79
23363;BME280;11853;48.080;11.960;2023-04-07T10:13:36;94626.41;;;11.18;63.22
23363;BME280;11853;48.080;11.960;2023-04-07T10:16:05;94625.44;;;11.19;62.51
23363;BME280;11853;48.080;11.960;2023-04-07T10:18:34;94614.81;;;11.27;62.73
23363;BME280;11853;48.080;11.960;2023-04-07T10:21:01;94625.63;;;11.34;62.17
23363;BME280;11853;48.080;11.960;2023-04-07T10:26:07;94625.78;;;11.32;61.17
23363;BME280;11853;48.080;11.960;2023-04-07T10:28:37;94623.28;;;11.22;61.46
23363;BME280;11853;48.080;11.960;2023-04-07T10:31:05;94621.44;;;11.15;61.58
23363;BME280;11853;48.080;11.960;2023-04-07T10:33:46;94620.06;;;11.02;62.28
23363;BME280;11853;48.080;11.960;2023-04-07T10:36:13;94620.44;;;11.08;61.66
23363;BME280;11853;48.080;11.960;2023-04-07T10:38:38;94617.09;;;11.05;62.31
23363;BME280;11853;48.080;11.960;2023-04-07T10:41:35;94620.41;;;11.16;63.27
23363;BME280;11853;48.080;11.960;2023-04-07T10:44:05;94615.34;;;11.31;61.30
23363;BME280;11853;48.080;11.960;2023-04-07T10:49:11;94619.50;;;11.33;60.90
23363;BME280;11853;48.080;11.960;2023-04-07T10:51:38;94624.97;;;11.40;61.07
23363;BME280;11853;48.080;11.960;2023-04-07T10:54:16;94624.66;;;11.43;59.58
23363;BME280;11853;48.080;11.960;2023-04-07T10:57:10;94624.47;;;11.36;60.32
23363;BME280;11853;48.080;11.960;2023-04-07T11:00:13;94616.81;;;11.41;60.38
23363;BME280;11853;48.080;11.960;2023-04-07T11:04:52;94623.00;;;11.58;59.18
23363;BME280;11853;48.080;11.960;2023-04-07T11:07:18;94615.19;;;11.48;59.73
23363;BME280;11853;48.080;11.960;2023-04-07T11:09:45;94611.72;;;11.48;59.25
23363;BME280;11853;48.080;11.960;2023-04-07T11:12:23;94613.22;;;11.50;60.87
23363;BME280;11853;48.080;11.960;2023-04-07T11:14:49;94607.56;;;11.54;59.50
23363;BME280;11853;48.080;11.960;2023-04-07T11:17:15;94605.41;;;11.57;59.53
23363;BME280;11853;48.080;11.960;2023-04-07T11:19:51;94604.91;;;11.70;61.43
23363;BME280;11853;48.080;11.960;2023-04-07T11:22:17;94604.94;;;11.86;61.64
23363;BME280;11853;48.080;11.960;2023-04-07T11:24:45;94603.25;;;12.02;60.73
23363;BME280;11853;48.080;11.960;2023-04-07T11:27:12;94604.59;;;12.22;61.29
23363;BME280;11853;48.080;11.960;2023-04-07T11:29:38;94596.53;;;12.47;60.74
23363;BME280;11853;48.080;11.960;2023-04-07T11:32:05;94596.28;;;12.73;59.88
23363;BME280;11853;48.080;11.960;2023-04-07T11:34:32;94593.69;;;12.96;59.68
23363;BME280;11853;48.080;11.960;2023-04-07T11:37:20;94594.28;;;13.14;57.89
23363;BME280;11853;48.080;11.960;2023-04-07T11:39:52;94590.66;;;13.07;56.12
23363;BME280;11853;48.080;11.960;2023-04-07T11:42:35;94587.38;;;12.97;55.59
23363;BME280;11853;48.080;11.960;2023-04-07T11:45:01;94588.56;;;12.94;55.48
23363;BME280;11853;48.080;11.960;2023-04-07T11:47:37;94597.06;;;12.90;55.85
23363;BME280;11853;48.080;11.960;2023-04-07T11:50:03;94595.94;;;12.76;55.67
23363;BME280;11853;48.080;11.960;2023-04-07T11:52:49;94592.31;;;12.69;56.46
23363;BME280;11853;48.080;11.960;2023-04-07T11:55:16;94582.69;;;12.68;56.30
23363;BME280;11853;48.080;11.960;2023-04-07T11:57:42;94581.47;;;12.70;57.05
23363;BME280;11853;48.080;11.960;2023-04-07T12:00:10;94573.97;;;12.82;56.95
23363;BME280;11853;48.080;11.960;2023-04-07T12:02:36;94578.56;;;12.96;57.09
23363;BME280;11853;48.080;11.960;2023-04-07T12:05:02;94572.69;;;13.01;53.18
23363;BME280;11853;48.080;11.960;2023-04-07T12:07:28;94577.25;;;12.92;53.53
23363;BME280;11853;48.080;11.960;2023-04-07T12:09:54;94576.06;;;12.95;53.46
23363;BME280;11853;48.080;11.960;2023-04-07T12:12:27;94578.16;;;12.76;54.16
23363;BME280;11853;48.080;11.960;2023-04-07T12:14:54;94562.84;;;12.70;54.20
23363;BME280;11853;48.080;11.960;2023-04-07T12:17:25;94570.56;;;12.65;55.08
23363;BME280;11853;48.080;11.960;2023-04-07T12:19:51;94573.56;;;12.62;55.82
23363;BME280;11853;48.080;11.960;2023-04-07T12:22:18;94576.84;;;12.64;55.71
23363;BME280;11853;48.080;11.960;2023-04-07T12:24:44;94580.06;;;12.59;54.44
23363;BME280;11853;48.080;11.960;2023-04-07T12:27:10;94578.25;;;12.52;54.95
23363;BME280;11853;48.080;11.960;2023-04-07T12:29:36;94574.91;;;12.50;56.10
23363;BME280;11853;48.080;11.960;2023-04-07T12:32:03;94580.91;;;12.52;56.05
23363;BME280;11853;48.080;11.960;2023-04-07T12:34:29;94577.53;;;12.58;56.44
23363;BME280;11853;48.080;11.960;2023-04-07T12:36:55;94572.03;;;12.68;55.65
23363;BME280;11853;48.080;11.960;2023-04-07T12:39:20;94572.34;;;12.65;55.41
23363;BME280;11853;48.080;11.960;2023-04-07T12:41:46;94568.84;;;12.72;54.18
23363;BME280;11853;48.080;11.960;2023-04-07T12:44:14;94574.41;;;12.54;54.76
23363;BME280;11853;48.080;11.960;2023-04-07T12:46:40;94569.75;;;12.56;54.63
23363;BME280;11853;48.080;11.960;2023-04-07T12:49:05;94566.78;;;12.51;54.49
23363;BME280;11853;48.080;11.960;2023-04-07T12:51:31;94558.25;;;12.56;54.10
23363;BME280;11853;48.080;11.960;2023-04-07T12:54:00;94566.88;;;12.66;54.26
23363;BME280;11853;48.080;11.960;2023-04-07T12:56:26;94574.72;;;12.59;54.39
23363;BME280;11853;48.080;11.960;2023-04-07T12:58:55;94561.78;;;12.48;54.56
23363;BME280;11853;48.080;11.960;2023-04-07T13:01:20;94571.59;;;12.48;54.84
23363;BME280;11853;48.080;11.960;2023-04-07T13:03:46;94571.75;;;12.54;55.66
23363;BME280;11853;48.080;11.960;2023-04-07T13:06:12;94566.91;;;12.58;55.42
23363;BME280;11853;48.080;11.960;2023-04-07T13:08:39;94572.41;;;12.56;54.18
23363;BME280;11853;48.080;11.960;2023-04-07T13:11:05;94566.28;;;12.48;54.23
23363;BME280;11853;48.080;11.960;2023-04-07T13:13:32;94572.25;;;12.42;53.82